Time;durP1;ratioP1;P1;durP2;ratioP2;P2;SDS_P1;SDS_P2;PMS_P1;PMS_P2;Temp;Humidity;BMP_temperature;BMP_pressure;BME280_temperature;BME280_humidity;BME280_pressure;Samples;Min_cycle;Max_cycle;Signal;HPM_P1;HPM_P2
2023/07/13 00:00:42;;;;;;;7.20;5.90;;;;;;;25.03;59.58;95085.97;5112613;28;21007;-80
2023/07/13 00:03:09;;;;;;;7.47;6.80;;;;;;;25.01;58.96;95082.69;5112560;28;20445;-80
2023/07/13 00:05:36;;;;;;;6.00;5.40;;;;;;;24.99;58.99;95085.56;5112408;28;20963;-79
2023/07/13 00:08:03;;;;;;;6.23;5.63;;;;;;;24.99;58.64;95084.75;5112276;28;20438;-81
2023/07/13 00:10:29;;;;;;;5.80;5.40;;;;;;;24.98;58.65;95088.44;5112352;28;20466;-80
2023/07/13 00:12:56;;;;;;;8.43;6.40;;;;;;;24.87;59.19;95078.41;5112619;28;20450;-80
2023/07/13 00:15:27;;;;;;;7.63;5.90;;;;;;;24.82;59.77;95070.94;5112174;28;20437;-80
2023/07/13 00:17:55;;;;;;;7.70;6.17;;;;;;;24.79;59.18;95089.34;5112645;28;20446;-79
2023/07/13 00:20:24;;;;;;;6.63;5.77;;;;;;;24.55;61.20;95091.69;5114172;28;20442;-80
2023/07/13 00:22:53;;;;;;;7.73;5.67;;;;;;;23.86;64.50;95078.00;5115928;28;20465;-80
2023/07/13 00:25:20;;;;;;;10.67;6.33;;;;;;;23.82;64.83;95088.31;5116238;28;20488;-80
2023/07/13 00:27:49;;;;;;;15.93;6.60;;;;;;;23.67;66.67;95091.19;5115853;28;20861;-81
2023/07/13 00:30:18;;;;;;;13.47;6.23;;;;;;;23.57;67.01;95079.22;5115996;28;20446;-79
2023/07/13 00:32:46;;;;;;;10.30;6.70;;;;;;;23.39;67.73;95087.84;5116055;28;20539;-79
2023/07/13 00:35:15;;;;;;;6.80;6.13;;;;;;;23.32;68.08;95085.16;5115728;28;20496;-80
2023/07/13 00:37:42;;;;;;;7.50;6.03;;;;;;;23.40;68.83;95081.44;5115828;28;20457;-80
2023/07/13 00:40:12;;;;;;;8.23;7.10;;;;;;;23.45;69.00;95076.31;5116069;28;20923;-80
2023/07/13 00:42:39;;;;;;;8.63;7.73;;;;;;;23.55;69.43;95065.19;5116065;28;20437;-80
2023/07/13 00:45:28;;;;;;;7.10;6.50;;;;;;;23.66;69.76;95081.50;5063299;28;20449;-79
2023/07/13 00:47:57;;;;;;;8.53;7.47;;;;;;;23.79;69.77;95078.00;5115860;28;20440;-81
2023/07/13 00:50:25;;;;;;;10.70;9.07;;;;;;;23.84;70.15;95075.53;5117889;28;20445;-80
2023/07/13 00:52:55;;;;;;;9.47;7.93;;;;;;;23.87;68.87;95080.47;5125325;28;20484;-80
2023/07/13 00:55:23;;;;;;;7.43;6.80;;;;;;;23.89;66.64;95078.41;5125929;28;20480;-79
2023/07/13 00:57:50;;;;;;;7.63;6.83;;;;;;;23.93;66.52;95081.50;5123272;28;20578;-81
2023/07/13 01:00:17;;;;;;;6.80;6.10;;;;;;;23.89;65.38;95065.00;5121799;28;20437;-81
2023/07/13 01:02:47;;;;;;;8.63;6.10;;;;;;;23.89;64.53;95061.50;5117834;28;20461;-80
2023/07/13 01:05:17;;;;;;;11.47;7.73;;;;;;;23.91;64.61;95060.25;5115753;28;20443;-80
2023/07/13 01:07:45;;;;;;;6.60;6.00;;;;;;;23.92;64.58;95064.59;5115919;28;20445;-80
2023/07/13 01:10:13;;;;;;;8.43;6.73;;;;;;;23.91;64.41;95065.63;5116435;28;20447;-81
2023/07/13 01:12:40;;;;;;;14.23;7.60;;;;;;;23.93;64.58;95058.19;5115776;28;20437;-80
2023/07/13 01:15:38;;;;;;;7.87;6.63;;;;;;;23.92;64.55;95069.13;5115951;28;20930;-80
2023/07/13 01:18:06;;;;;;;7.33;6.63;;;;;;;23.89;64.02;95065.00;5115893;28;20484;-80
2023/07/13 01:20:36;;;;;;;6.97;6.07;;;;;;;23.87;64.83;95064.38;5115682;28;20437;-80
2023/07/13 01:23:07;;;;;;;7.37;6.10;;;;;;;23.94;64.54;95064.38;5115389;28;20532;-78
2023/07/13 01:25:35;;;;;;;7.40;6.70;;;;;;;23.95;64.42;95055.28;5115877;28;20484;-80
2023/07/13 01:28:02;;;;;;;9.47;6.50;;;;;;;24.01;64.33;95060.66;5115641;28;20447;-80
2023/07/13 01:30:29;;;;;;;6.67;6.00;;;;;;;24.02;64.55;95064.19;5115182;28;20457;-77
2023/07/13 01:32:56;;;;;;;11.63;7.43;;;;;;;23.96;64.14;95065.81;5115371;28;20442;-78
2023/07/13 01:35:25;;;;;;;14.03;6.90;;;;;;;23.93;64.36;95066.22;5115121;28;20503;-80
2023/07/13 01:37:51;;;;;;;7.37;6.67;;;;;;;23.91;64.15;95062.94;5115182;28;20476;-79
2023/07/13 01:40:20;;;;;;;8.40;6.37;;;;;;;23.97;64.41;95070.13;5114749;28;20444;-78
2023/07/13 01:42:47;;;;;;;9.30;6.63;;;;;;;24.00;64.12;95069.75;5115509;28;20538;-80
2023/07/13 01:45:14;;;;;;;9.10;7.47;;;;;;;23.98;63.75;95071.78;5115107;28;20441;-80
2023/07/13 01:47:41;;;;;;;7.17;6.53;;;;;;;24.02;64.06;95073.03;5115017;28;20450;-80
2023/07/13 01:50:09;;;;;;;8.20;6.50;;;;;;;24.06;63.63;95068.91;5115546;28;20457;-80
2023/07/13 01:52:35;;;;;;;7.57;6.80;;;;;;;24.03;63.95;95066.66;5114887;28;20443;-78
2023/07/13 01:55:02;;;;;;;7.37;6.67;;;;;;;23.95;63.85;95063.34;5114939;28;20852;-78
2023/07/13 01:57:30;;;;;;;8.87;8.07;;;;;;;24.02;64.28;95059.63;5114712;28;20828;-79
2023/07/13 01:59:57;;;;;;;9.33;7.47;;;;;;;24.02;64.02;95061.50;5114768;28;20812;-79
2023/07/13 02:02:24;;;;;;;6.80;6.00;;;;;;;24.04;63.50;95065.63;5114719;28;20442;-78
2023/07/13 02:04:51;;;;;;;7.37;6.77;;;;;;;24.10;63.20;95064.78;5114325;28;20448;-80
2023/07/13 02:07:18;;;;;;;10.77;7.70;;;;;;;24.14;63.09;95067.03;5114227;28;20448;-80
2023/07/13 02:09:44;;;;;;;9.13;6.80;;;;;;;24.17;63.32;95067.44;5114157;28;20963;-80
2023/07/13 02:12:11;;;;;;;11.13;6.53;;;;;;;24.15;63.10;95074.03;5114404;28;20449;-79
2023/07/13 02:14:39;;;;;;;7.97;7.17;;;;;;;24.17;63.80;95071.97;5114142;28;20492;-79
2023/07/13 02:17:07;;;;;;;7.30;6.63;;;;;;;24.09;63.65;95068.50;5114123;28;20448;-79
2023/07/13 02:19:33;;;;;;;8.43;7.30;;;;;;;24.09;63.07;95068.50;5114042;28;20445;-79
2023/07/13 02:22:00;;;;;;;7.67;6.87;;;;;;;24.12;63.33;95069.91;5113927;28;20454;-81
2023/07/13 02:24:27;;;;;;;8.97;7.83;;;;;;;24.11;63.30;95062.91;5113962;28;20797;-80
2023/07/13 02:26:54;;;;;;;7.10;6.40;;;;;;;24.05;63.36;95063.75;5114056;28;20446;-80
2023/07/13 02:29:21;;;;;;;9.70;7.87;;;;;;;24.02;63.48;95070.38;5114480;28;20433;-79
2023/07/13 02:31:49;;;;;;;8.60;7.40;;;;;;;23.99;63.35;95068.06;5113905;28;20810;-79
2023/07/13 02:34:16;;;;;;;8.53;7.00;;;;;;;23.97;63.32;95078.19;5113530;28;20487;-80
2023/07/13 02:36:42;;;;;;;12.30;7.07;;;;;;;23.97;63.08;95080.84;5113837;28;21056;-80
2023/07/13 02:39:10;;;;;;;7.70;7.00;;;;;;;23.92;63.48;95075.31;5113840;28;20449;-79
2023/07/13 02:41:36;;;;;;;11.00;7.47;;;;;;;23.93;63.25;95079.63;5113712;28;20462;-79
2023/07/13 02:44:04;;;;;;;11.57;7.07;;;;;;;23.94;63.28;95085.81;5113265;28;20457;-79
2023/07/13 02:46:31;;;;;;;7.27;6.50;;;;;;;23.85;63.45;95068.31;5113799;28;20446;-78
2023/07/13 02:48:59;;;;;;;6.80;6.20;;;;;;;23.88;63.92;95082.13;5114073;28;20444;-80
2023/07/13 02:51:26;;;;;;;8.40;6.60;;;;;;;23.84;63.70;95075.53;5114163;28;20436;-79
2023/07/13 02:53:53;;;;;;;7.10;6.60;;;;;;;23.85;64.25;95073.66;5113991;28;20452;-79
2023/07/13 02:56:23;;;;;;;6.97;6.27;;;;;;;23.84;63.80;95083.56;5113817;28;20819;-81
2023/07/13 02:58:50;;;;;;;8.10;7.30;;;;;;;23.79;64.22;95086.88;5114023;28;20452;-79
2023/07/13 03:01:18;;;;;;;11.27;6.90;;;;;;;23.80;64.43;95085.00;5114436;28;20455;-79
2023/07/13 03:03:46;;;;;;;9.73;6.53;;;;;;;23.68;64.79;95086.66;5113773;28;20452;-76
2023/07/13 03:06:16;;;;;;;8.90;8.03;;;;;;;23.63;65.73;95086.44;5114053;28;20452;-79
2023/07/13 03:08:44;;;;;;;11.40;6.67;;;;;;;23.56;66.06;95086.44;5113382;28;20456;-80
2023/07/13 03:11:14;;;;;;;8.70;7.33;;;;;;;23.24;67.85;95082.69;5113671;28;20442;-79
2023/07/13 03:13:43;;;;;;;8.97;7.10;;;;;;;23.11;68.55;95090.66;5113948;28;20447;-79
2023/07/13 03:16:11;;;;;;;9.97;7.20;;;;;;;23.09;69.37;95090.03;5113225;28;20488;-80
2023/07/13 03:18:38;;;;;;;8.63;7.30;;;;;;;23.12;69.74;95093.13;5113364;28;20452;-79
2023/07/13 03:21:05;;;;;;;8.57;7.67;;;;;;;23.10;69.68;95094.38;5113471;28;20444;-79
2023/07/13 03:23:34;;;;;;;8.50;7.70;;;;;;;23.14;69.88;95093.78;5113469;28;20436;-77
2023/07/13 03:26:05;;;;;;;8.57;7.50;;;;;;;23.28;69.65;95097.31;5113310;28;20450;-79
2023/07/13 03:28:32;;;;;;;10.93;7.27;;;;;;;23.42;70.02;95099.00;5112933;28;20798;-79
2023/07/13 03:31:03;;;;;;;9.70;6.70;;;;;;;23.56;69.33;95104.38;5113205;28;20440;-80
2023/07/13 03:33:31;;;;;;;11.40;6.63;;;;;;;23.72;68.13;95102.13;5112883;28;20461;-79
2023/07/13 03:35:58;;;;;;;11.60;7.27;;;;;;;23.93;66.74;95095.72;5112749;28;20844;-79
2023/07/13 03:38:26;;;;;;;11.87;8.00;;;;;;;24.10;65.53;95105.00;5112859;28;20485;-79
2023/07/13 03:40:54;;;;;;;7.77;6.97;;;;;;;24.35;64.69;95101.69;5113208;28;20438;-78
2023/07/13 03:43:21;;;;;;;9.20;7.20;;;;;;;24.54;63.96;95098.09;5113234;28;20454;-79
2023/07/13 03:45:48;;;;;;;11.80;7.50;;;;;;;24.81;63.56;95096.16;5113329;28;20488;-79
2023/07/13 03:48:15;;;;;;;9.77;7.60;;;;;;;24.98;62.76;95088.44;5112839;28;20450;-79
2023/07/13 03:50:42;;;;;;;8.07;7.30;;;;;;;25.16;61.79;95085.09;5112828;28;20454;-79
2023/07/13 03:53:09;;;;;;;9.50;7.80;;;;;;;25.45;61.08;95094.41;5076944;28;20796;-78
2023/07/13 03:55:36;;;;;;;11.10;7.57;;;;;;;25.67;60.17;95086.81;5116814;28;20483;-79
2023/07/13 03:58:27;;;;;;;7.63;6.90;;;;;;;25.87;59.12;95088.31;5116923;28;20442;-79
2023/07/13 04:00:53;;;;;;;9.33;8.00;;;;;;;25.96;58.82;95082.66;5116830;28;20443;-79
2023/07/13 04:03:20;;;;;;;10.47;7.77;;;;;;;26.06;58.04;95091.06;5117083;28;20819;-79
2023/07/13 04:05:47;;;;;;;9.00;8.10;;;;;;;26.20;57.89;95093.41;5116719;28;20451;-79
2023/07/13 04:08:14;;;;;;;9.13;6.83;;;;;;;26.26;57.82;95089.00;5116538;28;20454;-79
2023/07/13 04:10:41;;;;;;;8.47;7.67;;;;;;;26.36;57.57;95089.34;5080971;28;20447;-79
2023/07/13 04:13:08;;;;;;;7.93;7.23;;;;;;;26.42;57.51;95088.47;5116906;28;20770;-78
2023/07/13 04:15:38;;;;;;;7.33;6.50;;;;;;;26.50;57.68;95095.41;5116509;28;20479;-79
2023/07/13 04:18:06;;;;;;;9.50;7.27;;;;;;;26.58;57.25;95083.50;5116914;28;20447;-79
2023/07/13 04:20:38;;;;;;;8.50;7.70;;;;;;;26.68;56.83;95086.53;5116697;28;20462;-79
2023/07/13 04:23:05;;;;;;;8.90;7.00;;;;;;;26.76;56.81;95092.41;5066581;28;20806;-79
2023/07/13 04:25:31;;;;;;;8.90;7.20;;;;;;;26.84;56.37;95099.34;5116753;28;20460;-79
2023/07/13 04:27:58;;;;;;;9.00;8.20;;;;;;;26.95;56.61;95104.00;5116491;28;20442;-80
2023/07/13 04:30:28;;;;;;;15.43;9.13;;;;;;;27.10;56.89;95109.00;5080656;28;20439;-80
2023/07/13 04:32:56;;;;;;;14.10;8.40;;;;;;;26.71;58.04;95105.75;5116388;28;20792;-79
2023/07/13 04:35:23;;;;;;;10.63;8.20;;;;;;;26.40;58.55;95112.06;5116158;28;20499;-79
2023/07/13 04:37:50;;;;;;;18.23;8.90;;;;;;;26.70;58.32;95114.03;5116311;28;20438;-79
2023/07/13 04:40:21;;;;;;;14.30;8.20;;;;;;;27.09;57.39;95107.38;5116115;28;20501;-78
2023/07/13 04:42:48;;;;;;;12.27;7.60;;;;;;;27.48;56.02;95116.00;5116314;28;20452;-79
2023/07/13 04:45:16;;;;;;;12.17;8.60;;;;;;;27.79;54.82;95115.75;5116126;28;20450;-80
2023/07/13 04:47:42;;;;;;;16.80;7.53;;;;;;;28.04;53.96;95112.84;5116585;28;20442;-79
2023/07/13 04:50:20;;;;;;;11.00;8.60;;;;;;;28.26;52.04;95124.75;5116195;28;20450;-80
2023/07/13 04:52:47;;;;;;;11.23;8.43;;;;;;;28.38;52.50;95125.59;5116518;28;20442;-79
2023/07/13 04:55:14;;;;;;;19.43;9.10;;;;;;;28.47;51.52;95126.03;5115806;28;20484;-80
2023/07/13 04:57:41;;;;;;;10.90;7.97;;;;;;;28.73;52.07;95132.00;5116311;28;20439;-79
2023/07/13 05:00:11;;;;;;;20.67;10.70;;;;;;;28.99;51.68;95129.66;5115641;28;20443;-79
2023/07/13 05:02:46;;;;;;;8.87;7.97;;;;;;;29.24;51.35;95125.81;5116099;28;20438;-80
2023/07/13 05:05:16;;;;;;;10.10;9.10;;;;;;;29.47;51.69;95125.75;5079090;28;20436;-79
2023/07/13 05:07:43;;;;;;;11.17;8.10;;;;;;;29.76;50.58;95142.78;5115864;28;20442;-78
2023/07/13 05:10:13;;;;;;;10.40;7.80;;;;;;;29.82;50.46;95139.13;5115790;28;20955;-80
2023/07/13 05:12:40;;;;;;;9.80;8.80;;;;;;;30.02;50.67;95149.44;5115726;28;20447;-80
2023/07/13 05:15:10;;;;;;;11.27;9.80;;;;;;;30.13;49.58;95142.38;5115739;28;20493;-79
2023/07/13 05:17:43;;;;;;;13.80;8.63;;;;;;;30.03;49.53;95142.19;5063564;28;20445;-79
2023/07/13 05:20:10;;;;;;;16.30;9.57;;;;;;;29.88;49.86;95142.72;5115603;28;20453;-77
2023/07/13 05:22:38;;;;;;;10.57;8.47;;;;;;;30.05;49.97;95138.16;5115463;28;20872;-79
2023/07/13 05:25:07;;;;;;;9.30;8.03;;;;;;;30.34;49.05;95140.78;5115304;28;20450;-80
2023/07/13 05:27:34;;;;;;;11.83;7.43;;;;;;;30.67;47.64;95140.81;5115405;28;20461;-80
2023/07/13 05:30:01;;;;;;;7.83;7.23;;;;;;;30.96;46.91;95136.06;5063637;28;20449;-80
2023/07/13 05:32:28;;;;;;;10.97;7.80;;;;;;;31.25;47.44;95146.75;5115051;28;20470;-80
2023/07/13 05:34:55;;;;;;;13.83;8.13;;;;;;;31.48;47.71;95146.47;5115036;28;20836;-80
2023/07/13 05:37:22;;;;;;;14.27;9.30;;;;;;;31.48;46.17;95146.47;5115062;28;20474;-80
2023/07/13 05:39:50;;;;;;;15.90;8.33;;;;;;;31.51;46.74;95147.84;5114982;28;20815;-80
2023/07/13 05:42:17;;;;;;;13.07;9.00;;;;;;;31.55;46.58;95147.09;5115280;28;20989;-80
2023/07/13 05:44:45;;;;;;;12.83;8.37;;;;;;;31.69;46.92;95139.38;5115428;28;20451;-80
2023/07/13 05:47:14;;;;;;;11.37;7.53;;;;;;;32.01;46.03;95151.13;5115055;28;20813;-80
2023/07/13 05:49:41;;;;;;;9.13;8.10;;;;;;;32.20;44.46;95151.56;5114991;28;20447;-81
2023/07/13 05:52:08;;;;;;;8.10;7.40;;;;;;;32.48;43.64;95157.78;5114998;28;20443;-80
2023/07/13 05:54:35;;;;;;;8.53;6.50;;;;;;;32.65;43.37;95151.09;5114798;28;20439;-80
2023/07/13 05:57:03;;;;;;;7.27;6.77;;;;;;;32.85;42.75;95142.31;5114605;28;20843;-80
2023/07/13 05:59:30;;;;;;;9.43;7.13;;;;;;;33.09;42.82;95142.72;5062075;28;20432;-80
2023/07/13 06:01:57;;;;;;;9.17;8.27;;;;;;;33.14;41.88;95142.72;5114844;28;20446;-80
2023/07/13 06:04:23;;;;;;;11.30;8.50;;;;;;;33.24;42.72;95156.34;5114625;28;20439;-79
2023/07/13 06:06:50;;;;;;;8.30;7.60;;;;;;;33.44;41.25;95147.50;5114543;28;20438;-80
2023/07/13 06:09:17;;;;;;;7.70;7.00;;;;;;;33.61;39.38;95141.03;5115012;28;20457;-79
2023/07/13 06:11:44;;;;;;;7.83;7.03;;;;;;;33.68;39.98;95134.25;5114910;28;20442;-80
2023/07/13 06:14:13;;;;;;;7.93;7.13;;;;;;;33.93;39.85;95135.41;5114787;28;20443;-80
2023/07/13 06:16:41;;;;;;;8.10;7.40;;;;;;;34.21;39.33;95129.44;5113709;28;20483;-81
2023/07/13 06:19:08;;;;;;;8.33;7.53;;;;;;;34.45;38.39;95130.56;5113962;28;20462;-80
2023/07/13 06:21:34;;;;;;;9.73;8.37;;;;;;;34.63;38.36;95134.63;5114500;28;20442;-80
2023/07/13 06:24:01;;;;;;;10.30;7.40;;;;;;;34.59;37.50;95135.44;5114264;28;20450;-80
2023/07/13 06:26:29;;;;;;;10.57;8.97;;;;;;;34.36;39.54;95142.25;5114162;28;20491;-80
2023/07/13 06:28:56;;;;;;;8.57;7.77;;;;;;;34.07;39.03;95134.59;5114292;28;20957;-79
2023/07/13 06:31:24;;;;;;;8.93;7.60;;;;;;;33.78;40.29;95142.41;5114084;28;20450;-79
2023/07/13 06:33:51;;;;;;;8.03;7.23;;;;;;;33.30;42.28;95134.66;5114138;28;20449;-80
2023/07/13 06:36:19;;;;;;;10.90;8.20;;;;;;;32.77;42.28;95131.09;5114362;28;20490;-80
2023/07/13 06:38:46;;;;;;;11.63;7.90;;;;;;;33.01;43.24;95134.25;5062729;28;20443;-80
2023/07/13 06:41:13;;;;;;;10.40;9.30;;;;;;;33.19;42.35;95134.59;5114002;28;20450;-80
2023/07/13 06:43:40;;;;;;;12.10;8.60;;;;;;;33.42;42.68;95137.97;5078160;28;20434;-80
2023/07/13 06:46:07;;;;;;;10.43;8.67;;;;;;;33.16;41.29;95135.13;5113989;28;20450;-81
2023/07/13 06:48:36;;;;;;;9.70;8.77;;;;;;;33.26;42.37;95135.19;5114312;28;20868;-80
2023/07/13 06:51:05;;;;;;;12.63;8.53;;;;;;;33.36;43.06;95145.31;5078509;28;20443;-80
2023/07/13 06:53:32;;;;;;;9.97;8.97;;;;;;;33.49;42.68;95144.78;5114252;28;20442;-80
2023/07/13 06:55:59;;;;;;;11.20;9.07;;;;;;;33.55;42.77;95142.94;5061360;28;20482;-79
2023/07/13 06:58:26;;;;;;;13.90;8.77;;;;;;;33.47;43.95;95140.69;5113960;28;20493;-80
2023/07/13 07:00:53;;;;;;;11.80;8.40;;;;;;;33.58;43.68;95131.50;5113893;28;20447;-80
2023/07/13 07:03:23;;;;;;;14.73;8.77;;;;;;;33.77;42.21;95134.53;5113943;28;20821;-80
2023/07/13 07:05:51;;;;;;;11.80;9.37;;;;;;;33.96;43.06;95135.69;5114130;28;20439;-80
2023/07/13 07:08:21;;;;;;;10.87;9.13;;;;;;;33.96;44.14;95134.88;5113711;28;20972;-80
2023/07/13 07:10:51;;;;;;;14.00;8.57;;;;;;;33.77;41.99;95127.16;5113836;28;20525;-79
2023/07/13 07:13:18;;;;;;;13.93;9.30;;;;;;;33.79;42.03;95127.72;5113647;28;20465;-80
2023/07/13 07:15:44;;;;;;;13.43;8.53;;;;;;;33.65;41.52;95137.50;5114100;28;20489;-80
2023/07/13 07:18:11;;;;;;;13.67;9.50;;;;;;;33.32;41.70;95137.94;5113914;28;20446;-80
2023/07/13 07:20:38;;;;;;;12.73;9.60;;;;;;;33.32;41.95;95135.22;5114040;28;20443;-80
2023/07/13 07:23:06;;;;;;;9.43;8.53;;;;;;;33.52;42.83;95132.56;5113828;28;20530;-80
2023/07/13 07:25:36;;;;;;;11.43;9.37;;;;;;;33.62;41.76;95143.50;5113647;28;20439;-81
2023/07/13 07:28:04;;;;;;;11.10;8.63;;;;;;;33.84;41.84;95140.59;5113130;28;20530;-80
2023/07/13 07:30:31;;;;;;;12.40;9.77;;;;;;;33.89;41.03;95131.59;5113478;28;20439;-80
2023/07/13 07:32:58;;;;;;;13.77;9.73;;;;;;;33.45;41.71;95132.81;5113776;28;20443;-80
2023/07/13 07:35:25;;;;;;;10.83;9.73;;;;;;;33.12;42.74;95127.75;5113560;28;20475;-80
2023/07/13 07:37:51;;;;;;;12.70;10.83;;;;;;;33.41;43.29;95134.44;5113590;28;20801;-80
2023/07/13 07:40:20;;;;;;;13.37;9.50;;;;;;;33.69;42.03;95124.16;5113402;28;20443;-80
2023/07/13 07:42:49;;;;;;;13.70;10.10;;;;;;;33.77;41.66;95119.00;5113874;28;20777;-81
2023/07/13 07:45:16;;;;;;;12.20;9.27;;;;;;;33.88;41.81;95122.63;5113628;28;20443;-80
2023/07/13 07:47:43;;;;;;;13.47;10.17;;;;;;;32.88;42.59;95130.06;5060887;28;20442;-80
2023/07/13 07:50:10;;;;;;;9.00;8.20;;;;;;;33.04;42.22;95114.69;5060740;28;20458;-80
2023/07/13 07:52:38;;;;;;;12.10;11.00;;;;;;;33.02;42.78;95111.41;5113187;28;20443;-80
2023/07/13 07:55:07;;;;;;;10.20;9.20;;;;;;;33.14;42.63;95115.53;5113298;28;20544;-79
2023/07/13 07:57:36;;;;;;;11.33;10.27;;;;;;;33.42;42.72;95117.03;5113304;28;20479;-80
2023/07/13 08:00:03;;;;;;;12.87;9.37;;;;;;;33.70;42.29;95104.84;5113232;28;20521;-81
2023/07/13 08:02:30;;;;;;;10.10;9.10;;;;;;;33.79;41.69;95108.66;5113115;28;20955;-80
2023/07/13 08:04:57;;;;;;;11.90;8.90;;;;;;;33.99;40.95;95105.19;5113236;28;20952;-80
2023/07/13 08:07:24;;;;;;;10.37;9.40;;;;;;;34.17;40.28;95104.66;5113045;28;20462;-80
2023/07/13 08:09:53;;;;;;;9.87;8.20;;;;;;;34.10;41.64;95097.81;5113015;28;21067;-79
2023/07/13 08:12:20;;;;;;;9.90;9.00;;;;;;;33.53;41.69;95093.38;5113087;28;20439;-80
2023/07/13 08:14:53;;;;;;;13.93;9.37;;;;;;;33.55;42.34;95088.50;5113328;28;20439;-78
2023/07/13 08:17:20;;;;;;;10.90;8.93;;;;;;;33.68;41.72;95079.78;5112941;28;20490;-80
2023/07/13 08:19:47;;;;;;;10.03;8.97;;;;;;;33.70;42.23;95074.91;5112898;28;20471;-80
2023/07/13 08:22:14;;;;;;;15.90;9.00;;;;;;;33.89;42.38;95067.06;5113123;28;20525;-81
2023/07/13 08:24:42;;;;;;;11.37;9.77;;;;;;;33.82;41.85;95067.28;5113164;28;20805;-81
2023/07/13 08:27:09;;;;;;;10.90;9.57;;;;;;;33.92;42.17;95077.41;5113202;28;20531;-80
2023/07/13 08:29:35;;;;;;;12.93;9.43;;;;;;;33.92;41.80;95068.41;5113147;28;20439;-80
2023/07/13 08:32:05;;;;;;;10.70;9.27;;;;;;;34.09;42.86;95063.50;5112962;28;20451;-80
2023/07/13 08:34:32;;;;;;;10.50;9.53;;;;;;;33.86;42.67;95057.53;5112500;28;20540;-80
2023/07/13 08:36:58;;;;;;;16.40;9.27;;;;;;;33.84;42.89;95059.72;5113171;28;20498;-81
2023/07/13 08:39:27;;;;;;;10.13;9.10;;;;;;;33.85;42.99;95066.78;5112637;28;20442;-80
2023/07/13 08:42:01;;;;;;;13.37;10.20;;;;;;;33.95;40.84;95056.97;5115781;28;20442;-80
2023/07/13 08:44:38;;;;;;;13.20;9.33;;;;;;;34.10;42.22;95063.22;5116608;28;20451;-79
2023/07/13 08:47:08;;;;;;;11.60;9.77;;;;;;;34.03;41.65;95056.44;5116296;28;20446;-80
2023/07/13 08:49:35;;;;;;;10.40;8.50;;;;;;;34.12;42.49;95054.81;5116524;28;20435;-80
2023/07/13 08:52:09;;;;;;;9.50;8.40;;;;;;;33.92;40.92;95049.34;5116305;28;20941;-80
2023/07/13 08:54:38;;;;;;;17.73;8.80;;;;;;;33.96;41.33;95059.44;5116624;28;20443;-80
2023/07/13 08:57:14;;;;;;;13.30;10.00;;;;;;;34.00;41.82;95052.34;5116097;28;20477;-80
2023/07/13 08:59:41;;;;;;;11.70;9.50;;;;;;;34.09;42.99;95055.31;5116170;28;20470;-80
2023/07/13 09:02:27;;;;;;;15.33;8.87;;;;;;;33.94;40.84;95060.78;5116335;28;20443;-80
2023/07/13 09:05:00;;;;;;;10.60;8.93;;;;;;;33.90;40.38;95052.34;5116075;28;20450;-81
2023/07/13 09:07:44;;;;;;;15.50;9.17;;;;;;;33.99;41.51;95066.22;5116119;28;20944;-80
2023/07/13 09:10:18;;;;;;;10.80;9.70;;;;;;;33.99;40.90;95067.06;5082195;28;20860;-79
2023/07/13 09:12:55;;;;;;;30.13;10.30;;;;;;;34.07;40.06;95073.84;5115990;28;20439;-79
2023/07/13 09:15:32;;;;;;;10.00;9.00;;;;;;;33.99;39.90;95097.00;5115487;28;20447;-80
2023/07/13 09:18:05;;;;;;;9.60;8.37;;;;;;;33.97;39.32;95098.38;5115519;28;20487;-80
2023/07/13 09:20:36;;;;;;;12.63;9.50;;;;;;;33.92;40.00;95092.94;5115994;28;20464;-80
2023/07/13 09:23:12;;;;;;;9.87;8.97;;;;;;;33.85;39.71;95096.75;5115575;28;20442;-80
2023/07/13 09:25:41;;;;;;;9.80;8.60;;;;;;;33.98;40.30;95097.28;5115774;28;20446;-80
2023/07/13 09:28:13;;;;;;;10.37;9.27;;;;;;;34.16;40.18;95089.41;5115209;28;20446;-80
2023/07/13 09:30:48;;;;;;;15.10;9.30;;;;;;;34.10;40.40;95090.47;5115417;28;20957;-80
2023/07/13 09:33:17;;;;;;;9.37;8.30;;;;;;;34.17;41.21;95084.75;5115817;28;20450;-81
2023/07/13 09:35:44;;;;;;;13.43;9.67;;;;;;;34.17;41.14;95087.50;5115575;28;20482;-80
2023/07/13 09:38:16;;;;;;;11.80;9.60;;;;;;;34.29;40.63;95098.09;5063348;28;20478;-80
2023/07/13 09:40:54;;;;;;;14.40;9.03;;;;;;;34.35;41.00;95086.94;5115971;28;20444;-80
2023/07/13 09:43:22;;;;;;;10.40;9.30;;;;;;;34.36;39.69;95093.22;5116101;28;20507;-81
2023/07/13 09:45:49;;;;;;;16.20;11.67;;;;;;;34.39;41.38;95093.47;5117441;28;20805;-80
2023/07/13 09:48:19;;;;;;;19.47;9.70;;;;;;;34.06;39.52;95074.94;5114940;28;20516;-78
2023/07/13 09:50:46;;;;;;;12.43;10.70;;;;;;;34.01;39.16;95080.41;5115497;28;20451;-80
2023/07/13 09:53:15;;;;;;;26.83;9.50;;;;;;;33.54;40.84;95076.78;5114803;28;20813;-81
2023/07/13 09:55:43;;;;;;;11.93;10.03;;;;;;;33.41;41.54;95063.69;5115172;28;20771;-80
2023/07/13 09:58:14;;;;;;;20.33;10.00;;;;;;;33.46;42.50;95060.16;5062701;28;20481;-80
2023/07/13 10:00:43;;;;;;;10.83;9.60;;;;;;;33.32;41.60;95057.13;5114782;28;20475;-79
2023/07/13 10:03:21;;;;;;;15.43;10.27;;;;;;;33.06;41.83;95047.22;5115990;28;20443;-79
2023/07/13 10:05:51;;;;;;;16.93;11.20;;;;;;;33.10;41.24;95057.31;5117700;28;20451;-80
2023/07/13 10:08:27;;;;;;;14.63;8.90;;;;;;;33.21;41.99;95037.22;5118410;28;20839;-79
2023/07/13 10:10:59;;;;;;;13.17;9.63;;;;;;;33.21;39.37;95045.38;5117673;28;20985;-79
2023/07/13 10:13:34;;;;;;;14.07;9.30;;;;;;;33.36;41.04;95041.09;5115596;28;20439;-80
2023/07/13 10:16:01;;;;;;;11.30;9.07;;;;;;;33.56;41.47;95038.41;5115114;28;20503;-80
2023/07/13 10:18:32;;;;;;;15.23;10.00;;;;;;;33.77;40.96;95031.06;5114830;28;20494;-79
2023/07/13 10:21:11;;;;;;;9.07;8.17;;;;;;;33.53;40.74;95033.50;5114638;28;20950;-80
2023/07/13 10:23:38;;;;;;;14.57;9.67;;;;;;;33.53;40.18;95036.22;5114515;28;20964;-80
2023/07/13 10:26:10;;;;;;;11.80;8.80;;;;;;;33.51;39.82;95030.22;5114385;28;20454;-81
2023/07/13 10:28:40;;;;;;;12.30;8.50;;;;;;;33.56;41.32;95031.06;5114206;28;20443;-81
2023/07/13 10:31:13;;;;;;;13.80;9.30;;;;;;;33.61;40.35;95027.53;5114248;28;20447;-80
2023/07/13 10:33:41;;;;;;;12.37;9.67;;;;;;;33.72;39.59;95021.00;5113878;28;20470;-81
2023/07/13 10:36:16;;;;;;;12.50;9.13;;;;;;;33.93;41.22;95012.88;5114308;28;20497;-81
2023/07/13 10:38:46;;;;;;;11.33;8.67;;;;;;;33.87;39.96;95020.22;5114061;28;20478;-80
2023/07/13 10:41:17;;;;;;;10.60;9.27;;;;;;;33.92;40.72;95017.50;5113951;28;20474;-81
2023/07/13 10:43:49;;;;;;;15.27;9.77;;;;;;;34.03;40.00;95018.28;5113846;28;20435;-80
2023/07/13 10:46:19;;;;;;;11.10;9.57;;;;;;;33.86;39.48;95008.53;5114114;28;20543;-81
2023/07/13 10:48:51;;;;;;;10.70;9.60;;;;;;;33.76;40.42;95011.19;5113855;28;20435;-81
2023/07/13 10:51:21;;;;;;;19.40;9.87;;;;;;;33.89;40.56;95009.88;5113625;28;20949;-79
2023/07/13 10:54:09;;;;;;;10.07;9.10;;;;;;;33.96;39.59;94995.97;5113685;28;20925;-79
2023/07/13 10:56:36;;;;;;;13.50;9.70;;;;;;;34.12;38.94;94994.88;5113526;28;20454;-78
2023/07/13 10:59:11;;;;;;;16.73;10.10;;;;;;;34.27;39.19;94986.66;5113707;28;20443;-78
2023/07/13 11:01:48;;;;;;;12.80;9.83;;;;;;;34.30;40.07;94980.66;5113397;28;20447;-78
2023/07/13 11:04:16;;;;;;;12.97;9.73;;;;;;;34.31;38.66;94978.75;5112909;28;20799;-80
2023/07/13 11:06:49;;;;;;;14.23;9.53;;;;;;;34.26;39.01;94974.13;5077804;28;20445;-79
2023/07/13 11:09:32;;;;;;;14.03;9.83;;;;;;;34.24;38.39;94973.59;5113711;28;20837;-80
2023/07/13 11:12:00;;;;;;;22.10;9.33;;;;;;;34.43;39.84;94971.13;5113444;28;20450;-80
2023/07/13 11:14:31;;;;;;;13.37;9.53;;;;;;;34.45;38.23;94969.75;5113462;28;20929;-79
2023/07/13 11:16:59;;;;;;;11.07;9.97;;;;;;;34.61;37.90;94964.22;5113655;28;20487;-79
2023/07/13 11:19:42;;;;;;;12.00;9.33;;;;;;;34.64;38.27;94964.50;5113437;28;20516;-79
2023/07/13 11:22:22;;;;;;;12.63;9.80;;;;;;;34.69;36.37;94950.00;5113353;28;20450;-79
2023/07/13 11:24:54;;;;;;;14.67;9.50;;;;;;;34.55;36.25;94949.81;5113475;28;20446;-80
2023/07/13 11:27:36;;;;;;;12.67;9.13;;;;;;;34.67;35.65;94950.28;5113246;28;20929;-80
2023/07/13 11:30:33;;;;;;;21.23;10.27;;;;;;;34.74;34.79;94948.09;5113406;28;20953;-80
2023/07/13 11:33:14;;;;;;;17.30;9.47;;;;;;;34.85;36.83;94946.16;5113363;28;20856;-80
2023/07/13 11:35:50;;;;;;;18.83;8.47;;;;;;;34.97;36.21;94938.44;5113305;28;20605;-79
2023/07/13 11:38:19;;;;;;;11.17;8.67;;;;;;;34.83;34.35;94942.06;5113315;28;20988;-79